createdAt,value
2018-09-29T00:02:26.437Z,6.50
2018-09-29T00:04:55.243Z,5.42
2018-09-29T00:07:23.992Z,6.15
2018-09-29T00:09:52.739Z,5.80
2018-09-29T00:12:21.437Z,6.53
2018-09-29T00:14:50.162Z,6.42
2018-09-29T00:17:18.866Z,5.75
2018-09-29T00:19:47.606Z,6.90
2018-09-29T00:22:16.309Z,5.53
2018-09-29T00:24:45.012Z,5.87
2018-09-29T00:27:13.722Z,7.08
2018-09-29T00:29:42.438Z,6.62
2018-09-29T00:32:11.121Z,6.35
2018-09-29T00:34:39.850Z,6.35
2018-09-29T00:37:08.593Z,6.05
2018-09-29T00:39:37.314Z,6.58
2018-09-29T00:42:06.018Z,7.03
2018-09-29T00:44:34.749Z,6.03
2018-09-29T00:47:03.458Z,6.20
2018-09-29T00:49:32.178Z,6.60
2018-09-29T00:52:00.873Z,6.33
2018-09-29T00:54:29.650Z,6.20
2018-09-29T00:56:58.346Z,6.30
2018-09-29T00:59:27.107Z,6.00
2018-09-29T01:01:55.856Z,5.73
2018-09-29T01:04:24.634Z,6.40
2018-09-29T01:06:53.334Z,6.83
2018-09-29T01:09:22.081Z,7.05
2018-09-29T01:11:50.784Z,6.72
2018-09-29T01:14:19.453Z,6.28
2018-09-29T01:16:48.200Z,5.87
2018-09-29T01:19:16.885Z,6.00
2018-09-29T01:21:45.609Z,6.45
2018-09-29T01:24:14.285Z,6.40
2018-09-29T01:26:43.022Z,6.53
2018-09-29T01:29:11.718Z,7.22
2018-09-29T01:31:46.681Z,7.35
2018-09-29T01:34:15.374Z,6.75
2018-09-29T01:36:44.101Z,6.50
2018-09-29T01:39:12.850Z,5.87
2018-09-29T01:41:41.584Z,7.10
2018-09-29T01:44:10.514Z,6.97
2018-09-29T01:46:39.329Z,6.75
2018-09-29T01:49:07.999Z,7.25
2018-09-29T01:51:36.728Z,6.08
2018-09-29T01:54:05.453Z,7.30
2018-09-29T01:56:34.185Z,6.58
2018-09-29T01:59:02.930Z,6.62
2018-09-29T02:01:31.674Z,6.43
2018-09-29T02:04:00.417Z,5.70
2018-09-29T02:06:29.159Z,6.67
2018-09-29T02:08:57.849Z,6.43
2018-09-29T02:11:26.594Z,6.87
2018-09-29T02:13:55.310Z,7.35
2018-09-29T02:16:24.060Z,7.42
2018-09-29T02:18:52.762Z,6.40
2018-09-29T02:21:21.569Z,7.37
2018-09-29T02:23:50.247Z,6.87
2018-09-29T02:26:18.961Z,6.20
2018-09-29T02:28:47.762Z,7.97
2018-09-29T02:31:16.455Z,7.12
2018-09-29T02:33:45.173Z,7.70
2018-09-29T02:36:13.876Z,7.00
2018-09-29T02:38:42.603Z,7.20
2018-09-29T02:41:11.298Z,6.45
2018-09-29T02:43:40.018Z,7.03
2018-09-29T02:46:08.790Z,7.55
2018-09-29T02:48:37.514Z,6.62
2018-09-29T02:51:06.300Z,6.60
2018-09-29T02:53:35.022Z,6.67
2018-09-29T02:56:03.709Z,7.30
2018-09-29T02:58:32.509Z,8.00
2018-09-29T03:01:01.211Z,7.15
2018-09-29T03:03:29.946Z,8.05
2018-09-29T03:05:58.745Z,7.90
2018-09-29T03:08:27.476Z,6.62
2018-09-29T03:10:56.246Z,6.72
2018-09-29T03:13:25.061Z,6.58
2018-09-29T03:15:53.774Z,6.95
2018-09-29T03:18:22.516Z,7.90
2018-09-29T03:20:51.221Z,7.00
2018-09-29T03:23:19.956Z,7.30
2018-09-29T03:25:48.649Z,6.70
2018-09-29T03:28:17.354Z,6.65
2018-09-29T03:30:46.039Z,7.85
2018-09-29T03:33:14.759Z,8.03
2018-09-29T03:35:43.454Z,7.67
2018-09-29T03:38:12.187Z,8.33
2018-09-29T03:40:40.910Z,6.90
2018-09-29T03:43:09.632Z,6.85
2018-09-29T03:45:38.322Z,7.87
2018-09-29T03:48:07.053Z,7.78
2018-09-29T03:50:35.790Z,7.28
2018-09-29T03:53:04.505Z,7.03
2018-09-29T03:55:33.242Z,7.33
2018-09-29T03:58:01.987Z,6.87
2018-09-29T04:00:30.737Z,6.90
2018-09-29T04:02:59.457Z,7.78
2018-09-29T04:05:28.225Z,7.80
2018-09-29T04:07:56.921Z,7.08
2018-09-29T04:10:25.730Z,7.40
2018-09-29T04:12:54.466Z,7.28
2018-09-29T04:15:23.295Z,7.62
2018-09-29T04:17:52.835Z,8.10
2018-09-29T04:20:21.629Z,6.87
2018-09-29T04:22:50.336Z,7.22
2018-09-29T04:25:19.062Z,7.78
2018-09-29T04:27:47.757Z,7.22
2018-09-29T04:30:16.482Z,7.47
2018-09-29T04:32:45.202Z,8.03
2018-09-29T04:35:13.922Z,7.85
2018-09-29T04:37:42.645Z,7.45
2018-09-29T04:40:11.373Z,6.87
2018-09-29T04:42:40.112Z,8.65
2018-09-29T04:45:08.886Z,7.67
2018-09-29T04:47:37.614Z,7.95
2018-09-29T04:50:06.431Z,7.12
2018-09-29T04:52:35.242Z,7.12
2018-09-29T04:55:04.118Z,7.08
2018-09-29T04:57:32.799Z,6.87
2018-09-29T05:00:01.518Z,7.00
2018-09-29T05:02:30.274Z,7.20
2018-09-29T05:04:59.061Z,7.12
2018-09-29T05:07:27.878Z,7.40
2018-09-29T05:09:56.576Z,7.58
2018-09-29T05:12:25.305Z,7.47
2018-09-29T05:14:54.622Z,6.72
2018-09-29T05:17:23.381Z,6.60
2018-09-29T05:19:52.094Z,7.50
2018-09-29T05:22:20.904Z,8.20
2018-09-29T05:24:49.658Z,7.17
2018-09-29T05:27:18.500Z,7.70
2018-09-29T05:29:47.278Z,6.97
2018-09-29T05:32:16.039Z,7.20
2018-09-29T05:34:44.771Z,7.72
2018-09-29T05:37:13.527Z,7.85
2018-09-29T05:39:42.294Z,7.75
2018-09-29T05:42:11.041Z,8.05
2018-09-29T05:44:39.763Z,8.67
2018-09-29T05:47:08.486Z,7.87
2018-09-29T05:49:37.198Z,8.17
2018-09-29T05:52:05.929Z,8.33
2018-09-29T05:54:34.709Z,7.17
2018-09-29T05:57:03.623Z,7.12
2018-09-29T05:59:32.356Z,8.78
2018-09-29T06:02:01.066Z,6.92
2018-09-29T06:04:30.098Z,6.78
2018-09-29T06:06:58.909Z,7.20
2018-09-29T06:09:27.713Z,8.93
2018-09-29T06:11:56.449Z,7.73
2018-09-29T06:14:25.219Z,8.77
2018-09-29T06:16:53.969Z,7.83
2018-09-29T06:19:22.833Z,9.30
2018-09-29T06:21:51.533Z,8.55
2018-09-29T06:24:20.335Z,7.47
2018-09-29T06:26:49.074Z,8.08
2018-09-29T06:29:17.796Z,9.18
2018-09-29T06:31:46.485Z,7.87
2018-09-29T06:34:15.268Z,8.83
2018-09-29T06:36:44.035Z,7.58
2018-09-29T06:39:12.949Z,8.30
2018-09-29T06:41:41.646Z,7.40
2018-09-29T06:44:10.366Z,7.97
2018-09-29T06:46:39.184Z,9.03
2018-09-29T06:49:07.909Z,8.13
2018-09-29T06:51:36.614Z,7.85
2018-09-29T06:54:05.338Z,7.70
2018-09-29T06:56:34.022Z,9.03
2018-09-29T06:59:02.862Z,7.35
2018-09-29T07:01:31.569Z,9.27
2018-09-29T07:04:00.358Z,7.33
2018-09-29T07:06:29.119Z,8.25
2018-09-29T07:08:57.857Z,8.98
2018-09-29T07:11:26.574Z,8.75
2018-09-29T07:13:55.397Z,8.98
2018-09-29T07:16:24.130Z,7.37
2018-09-29T07:18:52.825Z,7.45
2018-09-29T07:21:21.538Z,8.25
2018-09-29T07:23:50.241Z,7.20
2018-09-29T07:26:18.994Z,8.25
2018-09-29T07:28:47.689Z,8.28
2018-09-29T07:31:16.515Z,6.78
2018-09-29T07:33:45.161Z,8.38
2018-09-29T07:36:13.882Z,8.73
2018-09-29T07:38:42.614Z,9.38
2018-09-29T07:41:11.338Z,8.73
2018-09-29T07:43:40.040Z,7.50
2018-09-29T07:46:08.775Z,7.65
2018-09-29T07:48:37.505Z,8.80
2018-09-29T07:51:06.380Z,7.70
2018-09-29T07:53:35.245Z,7.20
2018-09-29T07:56:04.101Z,6.65
2018-09-29T07:58:32.846Z,8.18
2018-09-29T08:01:01.880Z,7.97
2018-09-29T08:03:30.628Z,8.00
2018-09-29T08:05:59.405Z,9.58
2018-09-29T08:08:28.142Z,8.00
2018-09-29T08:10:56.898Z,9.28
2018-09-29T08:13:25.602Z,7.30
2018-09-29T08:15:54.346Z,8.40
2018-09-29T08:18:23.113Z,9.65
2018-09-29T08:20:51.822Z,7.35
2018-09-29T08:23:20.574Z,8.05
2018-09-29T08:25:49.293Z,6.85
2018-09-29T08:28:18.026Z,7.60
2018-09-29T08:30:46.741Z,9.25
2018-09-29T08:33:15.497Z,9.75
2018-09-29T08:35:44.258Z,8.60
2018-09-29T08:38:12.994Z,9.25
2018-09-29T08:40:41.705Z,7.70
2018-09-29T08:43:10.496Z,10.43
2018-09-29T08:45:39.214Z,7.67
2018-09-29T08:48:07.950Z,8.05
2018-09-29T08:50:36.658Z,7.40
2018-09-29T08:53:05.459Z,15.00
2018-09-29T08:55:34.166Z,7.40
2018-09-29T08:58:02.919Z,7.63
2018-09-29T09:00:31.633Z,8.07
2018-09-29T09:03:00.362Z,7.67
2018-09-29T09:05:29.096Z,8.07
2018-09-29T09:07:57.841Z,7.63
2018-09-29T09:10:26.570Z,7.43
2018-09-29T09:12:55.315Z,7.03
2018-09-29T09:15:24.050Z,6.20
2018-09-29T09:17:53.643Z,7.28
2018-09-29T09:20:22.369Z,7.35
2018-09-29T09:22:51.141Z,7.05
2018-09-29T09:25:19.918Z,7.00
2018-09-29T09:27:48.620Z,6.80
2018-09-29T09:30:17.441Z,7.27
2018-09-29T09:32:46.421Z,6.87
2018-09-29T09:35:15.251Z,6.58
2018-09-29T09:37:43.956Z,6.72
2018-09-29T09:40:12.671Z,7.30
2018-09-29T09:42:41.373Z,6.60
2018-09-29T09:45:10.120Z,6.50
2018-09-29T09:47:38.843Z,6.67
2018-09-29T09:50:07.590Z,6.33
2018-09-29T09:52:36.298Z,5.45
2018-09-29T09:55:05.134Z,6.28
2018-09-29T09:57:33.882Z,7.22
2018-09-29T10:00:02.630Z,6.83
2018-09-29T10:02:36.625Z,6.90
2018-09-29T10:05:05.751Z,6.92
2018-09-29T10:07:34.439Z,6.62
2018-09-29T10:10:03.270Z,6.47
2018-09-29T10:12:38.697Z,6.10
2018-09-29T10:15:07.465Z,7.53
2018-09-29T10:17:36.259Z,6.55
2018-09-29T10:20:05.318Z,6.95
2018-09-29T10:22:34.035Z,5.83
2018-09-29T10:25:02.759Z,6.00
2018-09-29T10:27:31.549Z,6.53
2018-09-29T10:30:00.247Z,6.10
2018-09-29T10:32:28.942Z,6.72
2018-09-29T10:34:57.748Z,7.28
2018-09-29T10:37:26.442Z,6.40
2018-09-29T10:39:55.174Z,6.47
2018-09-29T10:42:23.882Z,6.10
2018-09-29T10:44:52.577Z,6.67
2018-09-29T10:47:21.410Z,6.50
2018-09-29T10:49:50.100Z,6.10
2018-09-29T10:52:18.877Z,5.92
2018-09-29T10:54:47.734Z,6.30
2018-09-29T10:57:16.492Z,6.60
2018-09-29T10:59:45.330Z,6.50
2018-09-29T11:02:14.062Z,6.03
2018-09-29T11:04:42.794Z,6.42
2018-09-29T11:07:11.520Z,5.95
2018-09-29T11:09:40.309Z,6.47
2018-09-29T11:12:09.051Z,6.12
2018-09-29T11:14:37.762Z,6.20
2018-09-29T11:17:06.570Z,5.95
2018-09-29T11:19:35.330Z,7.12
2018-09-29T11:22:04.074Z,6.90
2018-09-29T11:24:32.782Z,6.12
2018-09-29T11:27:01.522Z,5.83
2018-09-29T11:29:30.230Z,6.53
2018-09-29T11:31:58.978Z,6.25
2018-09-29T11:34:27.676Z,5.50
2018-09-29T11:36:56.400Z,5.83
2018-09-29T11:39:25.132Z,6.17
2018-09-29T11:41:53.938Z,5.97
2018-09-29T11:44:22.642Z,6.17
2018-09-29T11:46:51.426Z,5.60
2018-09-29T11:49:20.178Z,5.83
2018-09-29T11:51:48.933Z,6.90
2018-09-29T11:54:17.670Z,6.03
2018-09-29T11:56:46.383Z,5.75
2018-09-29T11:59:15.125Z,5.53
2018-09-29T12:01:43.887Z,6.12
2018-09-29T12:04:12.653Z,6.40
2018-09-29T12:06:41.365Z,7.03
2018-09-29T12:09:11.879Z,5.95
2018-09-29T12:11:40.773Z,6.30
2018-09-29T12:14:09.610Z,6.55
2018-09-29T12:16:38.354Z,6.70
2018-09-29T12:19:07.094Z,6.42
2018-09-29T12:21:35.802Z,6.03
2018-09-29T12:24:04.563Z,5.90
2018-09-29T12:26:33.485Z,6.40
2018-09-29T12:29:02.231Z,5.07
2018-09-29T12:31:30.947Z,5.30
2018-09-29T12:33:59.685Z,5.50
2018-09-29T12:36:28.365Z,5.75
2018-09-29T12:38:57.114Z,5.30
2018-09-29T12:41:25.802Z,5.50
2018-09-29T12:43:54.538Z,5.75
2018-09-29T12:46:23.236Z,5.33
2018-09-29T12:48:51.976Z,5.30
2018-09-29T12:51:20.738Z,5.63
2018-09-29T12:53:49.446Z,5.53
2018-09-29T12:56:18.169Z,6.10
2018-09-29T12:58:46.929Z,5.92
2018-09-29T13:01:15.639Z,5.62
2018-09-29T13:03:44.382Z,6.05
2018-09-29T13:06:13.235Z,4.53
2018-09-29T13:08:41.956Z,6.17
2018-09-29T13:11:10.718Z,5.80
2018-09-29T13:13:39.411Z,5.55
2018-09-29T13:16:08.146Z,5.60
2018-09-29T13:18:36.845Z,5.62
2018-09-29T13:21:05.581Z,4.13
2018-09-29T13:23:34.315Z,5.00
2018-09-29T13:26:03.070Z,5.87
2018-09-29T13:28:31.780Z,5.10
2018-09-29T13:31:00.554Z,5.92
2018-09-29T13:33:29.264Z,5.62
2018-09-29T13:35:58.098Z,5.45
2018-09-29T13:38:26.850Z,5.85
2018-09-29T13:40:55.586Z,5.10
2018-09-29T13:43:24.300Z,5.62
2018-09-29T13:45:53.062Z,5.92
2018-09-29T13:48:21.778Z,5.33
2018-09-29T13:50:50.525Z,6.20
2018-09-29T13:53:19.211Z,4.87
2018-09-29T13:55:48.006Z,4.97
2018-09-29T13:58:16.865Z,6.15
2018-09-29T14:00:45.608Z,4.72
2018-09-29T14:03:14.322Z,5.33
2018-09-29T14:05:43.057Z,5.20
2018-09-29T14:08:11.805Z,4.70
2018-09-29T14:10:40.515Z,5.45
2018-09-29T14:13:09.253Z,4.95
2018-09-29T14:15:37.984Z,5.00
2018-09-29T14:18:06.390Z,6.47
2018-09-29T14:20:35.130Z,5.55
2018-09-29T14:23:03.899Z,5.90
2018-09-29T14:25:32.606Z,5.33
2018-09-29T14:28:01.345Z,5.30
2018-09-29T14:30:30.134Z,5.30
2018-09-29T14:32:58.942Z,5.07
2018-09-29T14:35:27.642Z,4.67
2018-09-29T14:37:56.377Z,4.95
2018-09-29T14:40:25.070Z,5.10
2018-09-29T14:42:53.805Z,5.28
2018-09-29T14:45:22.505Z,6.42
2018-09-29T14:47:51.240Z,5.78
2018-09-29T14:50:20.167Z,4.83
2018-09-29T14:52:48.902Z,4.70
2018-09-29T14:55:17.610Z,4.97
2018-09-29T14:57:46.523Z,5.65
2018-09-29T15:00:15.136Z,5.50
2018-09-29T15:02:43.884Z,5.40
2018-09-29T15:05:12.598Z,4.92
2018-09-29T15:07:41.321Z,5.33
2018-09-29T15:10:10.034Z,5.08
2018-09-29T15:12:38.782Z,5.10
2018-09-29T15:15:07.989Z,5.67
2018-09-29T15:17:36.957Z,4.83
2018-09-29T15:20:05.855Z,5.70
2018-09-29T15:22:34.567Z,5.83
2018-09-29T15:25:03.341Z,5.60
2018-09-29T15:27:32.042Z,5.05
2018-09-29T15:30:00.840Z,5.35
2018-09-29T15:32:29.558Z,7.57
2018-09-29T15:34:58.293Z,5.22
2018-09-29T15:37:26.974Z,5.58
2018-09-29T15:39:55.782Z,5.58
2018-09-29T15:42:24.754Z,5.05
2018-09-29T15:44:53.513Z,6.15
2018-09-29T15:47:22.206Z,5.62
2018-09-29T15:49:50.979Z,6.42
2018-09-29T15:52:19.706Z,5.42
2018-09-29T15:54:48.541Z,5.78
2018-09-29T15:57:17.262Z,5.30
2018-09-29T15:59:46.002Z,5.47
2018-09-29T16:02:14.711Z,5.97
2018-09-29T16:04:43.483Z,5.53
2018-09-29T16:07:12.177Z,5.35
2018-09-29T16:09:40.923Z,5.78
2018-09-29T16:12:09.679Z,4.58
2018-09-29T16:14:38.394Z,6.08
2018-09-29T16:17:07.146Z,5.45
2018-09-29T16:19:35.882Z,5.40
2018-09-29T16:22:04.618Z,5.28
2018-09-29T16:24:33.326Z,5.15
2018-09-29T16:27:02.070Z,6.33
2018-09-29T16:29:30.859Z,5.67
2018-09-29T16:31:59.830Z,5.20
2018-09-29T16:34:28.714Z,5.85
2018-09-29T16:36:57.469Z,5.80
2018-09-29T16:39:26.150Z,5.93
2018-09-29T16:41:54.910Z,5.95
2018-09-29T16:44:23.634Z,5.60
2018-09-29T16:46:52.390Z,5.35
2018-09-29T16:49:21.082Z,6.00
2018-09-29T16:51:49.920Z,6.22
2018-09-29T16:54:18.681Z,4.95
2018-09-29T16:56:47.405Z,5.87
2018-09-29T16:59:16.089Z,6.22
2018-09-29T17:01:44.813Z,5.40
2018-09-29T17:04:13.588Z,5.95
2018-09-29T17:06:42.306Z,6.28
2018-09-29T17:09:12.231Z,6.40
2018-09-29T17:11:40.994Z,5.90
2018-09-29T17:14:09.726Z,9.28
2018-09-29T17:16:38.447Z,7.07
2018-09-29T17:19:07.545Z,6.17
2018-09-29T17:21:36.329Z,6.72
2018-09-29T17:24:05.069Z,6.00
2018-09-29T17:26:33.840Z,5.85
2018-09-29T17:29:02.557Z,5.62
2018-09-29T17:31:31.289Z,6.33
2018-09-29T17:33:59.996Z,6.33
2018-09-29T17:36:29.438Z,6.53
2018-09-29T17:38:58.189Z,6.00
2018-09-29T17:41:26.881Z,7.05
2018-09-29T17:43:55.645Z,5.22
2018-09-29T17:46:24.393Z,5.83
2018-09-29T17:48:53.143Z,6.65
2018-09-29T17:51:21.908Z,5.05
2018-09-29T17:53:50.661Z,6.03
2018-09-29T17:56:19.435Z,5.10
2018-09-29T17:58:48.185Z,6.50
2018-09-29T18:01:16.898Z,6.85
2018-09-29T18:03:45.651Z,6.67
2018-09-29T18:06:14.362Z,6.97
2018-09-29T18:08:43.101Z,8.17
2018-09-29T18:11:11.866Z,5.83
2018-09-29T18:13:40.763Z,5.58
2018-09-29T18:16:09.444Z,6.80
2018-09-29T18:18:38.198Z,6.08
2018-09-29T18:21:07.130Z,7.08
2018-09-29T18:23:36.337Z,6.77
2018-09-29T18:26:05.045Z,6.83
2018-09-29T18:28:33.765Z,7.12
2018-09-29T18:31:02.470Z,7.83
2018-09-29T18:33:31.266Z,7.03
2018-09-29T18:36:00.070Z,6.05
2018-09-29T18:38:28.821Z,6.65
2018-09-29T18:40:57.644Z,6.58
2018-09-29T18:43:26.358Z,7.05
2018-09-29T18:45:55.158Z,6.58
2018-09-29T18:48:23.921Z,6.60
2018-09-29T18:50:52.666Z,7.08
2018-09-29T18:53:21.369Z,6.55
2018-09-29T18:55:50.114Z,6.42
2018-09-29T18:58:18.860Z,6.55
2018-09-29T19:00:47.628Z,7.35
2018-09-29T19:03:16.358Z,5.97
2018-09-29T19:05:45.126Z,5.63
2018-09-29T19:08:13.842Z,6.00
2018-09-29T19:10:42.670Z,7.37
2018-09-29T19:13:11.378Z,5.67
2018-09-29T19:15:40.150Z,6.10
2018-09-29T19:18:08.854Z,6.20
2018-09-29T19:20:37.570Z,6.10
2018-09-29T19:23:06.320Z,6.22
2018-09-29T19:25:35.042Z,5.62
2018-09-29T19:28:03.798Z,6.53
2018-09-29T19:30:32.570Z,6.62
2018-09-29T19:33:01.330Z,6.53
2018-09-29T19:35:30.082Z,6.80
2018-09-29T19:37:58.803Z,7.28
2018-09-29T19:40:27.510Z,6.33
2018-09-29T19:42:56.222Z,6.42
2018-09-29T19:45:24.953Z,6.80
2018-09-29T19:47:53.654Z,6.30
2018-09-29T19:50:22.404Z,6.28
2018-09-29T19:52:51.082Z,6.70
2018-09-29T19:55:19.801Z,6.22
2018-09-29T19:57:48.510Z,6.97
2018-09-29T20:00:17.250Z,7.10
2018-09-29T20:02:46.017Z,7.10
2018-09-29T20:05:14.786Z,7.25
2018-09-29T20:07:43.555Z,6.60
2018-09-29T20:10:12.299Z,7.25
2018-09-29T20:12:41.062Z,6.43
2018-09-29T20:15:09.773Z,7.20
2018-09-29T20:17:38.491Z,6.73
2018-09-29T20:20:07.326Z,6.62
2018-09-29T20:22:36.102Z,6.77
2018-09-29T20:25:04.864Z,7.03
2018-09-29T20:27:33.634Z,7.00
2018-09-29T20:30:02.510Z,6.78
2018-09-29T20:32:31.242Z,7.07
2018-09-29T20:34:59.987Z,6.93
2018-09-29T20:37:28.718Z,6.78
2018-09-29T20:39:57.457Z,6.62
2018-09-29T20:42:26.210Z,7.03
2018-09-29T20:44:54.914Z,6.50
2018-09-29T20:47:23.618Z,7.15
2018-09-29T20:49:52.320Z,7.17
2018-09-29T20:52:21.176Z,5.92
2018-09-29T20:54:49.882Z,6.42
2018-09-29T20:57:18.618Z,6.40
2018-09-29T20:59:47.348Z,6.50
2018-09-29T21:02:16.114Z,7.33
2018-09-29T21:04:44.853Z,6.90
2018-09-29T21:07:13.590Z,6.97
2018-09-29T21:09:42.283Z,7.30
2018-09-29T21:12:11.014Z,6.97
2018-09-29T21:14:39.697Z,7.55
2018-09-29T21:17:08.385Z,6.25
2018-09-29T21:19:37.114Z,6.62
2018-09-29T21:22:05.831Z,7.28
2018-09-29T21:24:34.585Z,7.45
2018-09-29T21:27:03.353Z,7.90
2018-09-29T21:29:32.109Z,7.75
2018-09-29T21:32:00.894Z,7.10
2018-09-29T21:34:29.641Z,7.20
2018-09-29T21:36:58.373Z,6.27
2018-09-29T21:39:27.160Z,7.13
2018-09-29T21:41:55.894Z,7.77
2018-09-29T21:44:24.650Z,8.33
2018-09-29T21:46:53.461Z,7.60
2018-09-29T21:49:22.246Z,8.20
2018-09-29T21:51:50.959Z,6.77
2018-09-29T21:54:19.926Z,7.07
2018-09-29T21:56:48.669Z,7.12
2018-09-29T21:59:17.430Z,7.42
2018-09-29T22:01:46.133Z,6.75
2018-09-29T22:04:14.902Z,6.90
2018-09-29T22:06:43.605Z,8.43
2018-09-29T22:09:16.507Z,7.07
2018-09-29T22:11:45.194Z,8.30
2018-09-29T22:14:13.921Z,7.87
2018-09-29T22:16:42.625Z,8.67
2018-09-29T22:19:11.362Z,8.33
2018-09-29T22:21:40.066Z,9.18
2018-09-29T22:24:08.910Z,8.45
2018-09-29T22:26:37.711Z,8.63
2018-09-29T22:29:06.742Z,8.43
2018-09-29T22:31:35.553Z,8.00
2018-09-29T22:34:04.334Z,8.53
2018-09-29T22:36:33.078Z,7.70
2018-09-29T22:39:01.802Z,8.98
2018-09-29T22:41:30.597Z,7.70
2018-09-29T22:43:59.306Z,7.85
2018-09-29T22:46:28.034Z,8.60
2018-09-29T22:48:56.728Z,8.10
2018-09-29T22:51:25.466Z,8.13
2018-09-29T22:53:54.217Z,8.03
2018-09-29T22:56:22.950Z,8.40
2018-09-29T22:58:51.633Z,8.58
2018-09-29T23:01:20.346Z,8.10
2018-09-29T23:03:49.054Z,6.70
2018-09-29T23:06:17.819Z,7.83
2018-09-29T23:08:46.489Z,7.97
2018-09-29T23:11:15.220Z,7.62
2018-09-29T23:13:43.927Z,8.00
2018-09-29T23:16:13.617Z,7.50
2018-09-29T23:18:42.331Z,6.90
2018-09-29T23:21:11.089Z,7.85
2018-09-29T23:23:39.821Z,8.03
2018-09-29T23:26:08.590Z,7.35
2018-09-29T23:28:37.301Z,7.75
2018-09-29T23:31:06.250Z,7.22
2018-09-29T23:33:35.035Z,7.22
2018-09-29T23:36:03.809Z,7.85
2018-09-29T23:38:32.550Z,6.62
2018-09-29T23:41:01.404Z,8.45
2018-09-29T23:43:30.141Z,7.97
2018-09-29T23:45:58.881Z,7.40
2018-09-29T23:48:27.679Z,7.85
2018-09-29T23:50:56.412Z,6.92
2018-09-29T23:53:25.145Z,7.83
2018-09-29T23:55:53.858Z,7.03
2018-09-29T23:58:22.573Z,8.90
